createdAt,value
2019-03-10T00:00:51.938Z,72.33
2019-03-10T00:03:19.793Z,71.62
2019-03-10T00:05:47.254Z,71.83
2019-03-10T00:08:15.268Z,72.19
2019-03-10T00:10:43.131Z,72.05
2019-03-10T00:13:11.680Z,71.77
2019-03-10T00:15:39.202Z,72.00
2019-03-10T00:18:07.074Z,71.95
2019-03-10T00:20:35.504Z,72.19
2019-03-10T00:23:03.468Z,72.20
2019-03-10T00:25:31.754Z,72.05
2019-03-10T00:27:59.490Z,72.29
2019-03-10T00:30:27.385Z,72.33
2019-03-10T00:59:44.226Z,70.24
2019-03-10T01:02:12.313Z,70.08
2019-03-10T01:04:40.330Z,69.91
2019-03-10T01:07:08.358Z,71.44
2019-03-10T01:09:36.684Z,70.86
2019-03-10T01:12:04.713Z,71.32
2019-03-10T01:14:33.064Z,70.43
2019-03-10T01:17:01.822Z,71.06
2019-03-10T01:19:31.912Z,71.32
2019-03-10T01:22:00.648Z,70.92
2019-03-10T01:24:28.389Z,69.35
2019-03-10T01:26:55.816Z,69.79
2019-03-10T01:29:23.752Z,68.74
2019-03-10T01:32:10.243Z,69.73
2019-03-10T01:35:10.258Z,69.64
2019-03-10T01:37:38.130Z,68.86
2019-03-10T01:40:06.832Z,68.23
2019-03-10T01:42:34.234Z,69.88
2019-03-10T01:45:01.529Z,69.27
2019-03-10T01:47:29.154Z,70.18
2019-03-10T01:49:57.131Z,69.50
2019-03-10T01:52:24.757Z,69.08
2019-03-10T01:54:52.644Z,69.25
2019-03-10T01:57:20.290Z,69.11
2019-03-10T01:59:47.593Z,69.52
2019-03-10T02:02:24.915Z,69.49
2019-03-10T02:04:45.955Z,69.71
2019-03-10T02:07:14.229Z,69.67
2019-03-10T02:09:41.824Z,69.33
2019-03-10T02:12:09.246Z,68.96
2019-03-10T02:14:37.145Z,69.31
2019-03-10T02:17:04.967Z,69.82
2019-03-10T02:19:32.952Z,69.72
2019-03-10T02:22:00.801Z,69.68
2019-03-10T02:24:28.562Z,69.41
2019-03-10T02:26:56.602Z,70.26
2019-03-10T02:29:24.594Z,70.09
2019-03-10T02:31:52.022Z,69.99
2019-03-10T02:34:21.594Z,70.25
2019-03-10T02:36:48.886Z,70.15
2019-03-10T02:39:16.540Z,70.22
2019-03-10T02:41:44.201Z,69.77
2019-03-10T02:44:12.576Z,69.67
2019-03-10T02:46:40.911Z,69.28
2019-03-10T02:49:08.889Z,70.22
2019-03-10T02:51:36.553Z,70.22
2019-03-10T02:54:04.336Z,70.23
2019-03-10T02:56:31.636Z,70.43
2019-03-10T02:58:59.473Z,70.20
2019-03-10T03:01:27.196Z,70.15
2019-03-10T03:03:55.339Z,70.23
2019-03-10T03:06:23.249Z,70.36
2019-03-10T03:08:51.193Z,70.50
2019-03-10T03:11:19.500Z,70.34
2019-03-10T03:13:46.766Z,70.39
2019-03-10T03:16:14.767Z,70.08
2019-03-10T03:18:42.483Z,69.52
2019-03-10T03:21:10.410Z,69.77
2019-03-10T03:23:37.972Z,69.87
2019-03-10T03:26:05.482Z,70.25
2019-03-10T03:28:33.209Z,70.01
2019-03-10T03:31:00.655Z,70.21
2019-03-10T03:33:28.051Z,70.03
2019-03-10T03:36:07.645Z,70.12
2019-03-10T03:38:43.323Z,70.14
2019-03-10T03:41:14.487Z,69.88
2019-03-10T03:43:42.648Z,69.98
2019-03-10T03:46:10.496Z,69.88
2019-03-10T03:48:38.807Z,69.91
2019-03-10T03:51:06.268Z,70.35
2019-03-10T03:53:33.940Z,71.42
2019-03-10T03:56:01.487Z,70.13
2019-03-10T03:58:29.253Z,69.93
2019-03-10T04:01:19.348Z,70.40
2019-03-10T04:03:47.036Z,70.90
2019-03-10T04:06:15.298Z,70.60
2019-03-10T04:08:42.601Z,70.76
2019-03-10T04:11:10.164Z,71.38
2019-03-10T04:13:37.889Z,71.32
2019-03-10T04:16:06.273Z,72.28
2019-03-10T04:18:33.707Z,73.05
2019-03-10T04:21:01.876Z,71.96
2019-03-10T04:23:29.653Z,76.28
2019-03-10T04:25:57.797Z,72.74
2019-03-10T04:28:26.603Z,75.13
2019-03-10T04:30:54.017Z,73.43
2019-03-10T04:33:21.666Z,75.08
2019-03-10T04:35:48.845Z,75.54
2019-03-10T04:38:16.576Z,75.08
2019-03-10T04:40:44.275Z,75.15
2019-03-10T04:43:11.635Z,75.35
2019-03-10T04:45:39.047Z,77.87
2019-03-10T04:48:06.576Z,77.18
2019-03-10T04:50:34.924Z,74.65
2019-03-10T04:53:02.650Z,75.29
2019-03-10T04:55:47.892Z,75.94
2019-03-10T04:58:15.484Z,75.98
2019-03-10T05:00:44.917Z,77.91
2019-03-10T05:03:12.841Z,77.14
2019-03-10T05:05:40.555Z,78.66
2019-03-10T05:08:08.869Z,80.30
2019-03-10T05:10:36.518Z,80.59
2019-03-10T05:13:04.020Z,80.27
2019-03-10T05:15:31.595Z,82.11
2019-03-10T05:17:59.458Z,82.29
2019-03-10T05:20:27.740Z,82.61
2019-03-10T05:23:47.269Z,81.22
2019-03-10T05:26:15.698Z,82.65
2019-03-10T05:28:45.414Z,80.03
2019-03-10T05:31:12.929Z,79.16
2019-03-10T05:33:40.832Z,80.24
2019-03-10T05:36:09.110Z,80.23
2019-03-10T05:38:36.762Z,81.83
2019-03-10T05:41:05.467Z,78.86
2019-03-10T05:43:33.278Z,78.93
2019-03-10T05:46:00.827Z,80.47
2019-03-10T05:48:28.424Z,81.78
2019-03-10T05:50:56.040Z,83.51
2019-03-10T05:53:23.603Z,81.93
2019-03-10T05:55:51.325Z,81.63
2019-03-10T05:58:19.147Z,81.15
2019-03-10T06:00:46.672Z,80.81
2019-03-10T06:03:14.548Z,82.21
2019-03-10T06:05:42.558Z,83.99
2019-03-10T06:08:10.580Z,81.90
2019-03-10T06:10:38.155Z,84.51
2019-03-10T06:13:05.916Z,85.14
2019-03-10T06:15:33.819Z,82.73
2019-03-10T06:18:01.613Z,80.81
2019-03-10T06:20:29.220Z,81.20
2019-03-10T06:22:57.356Z,83.27
2019-03-10T06:25:24.761Z,81.59
2019-03-10T06:27:53.202Z,79.77
2019-03-10T06:30:20.889Z,79.94
2019-03-10T06:32:48.743Z,79.66
2019-03-10T06:35:17.025Z,78.89
2019-03-10T06:37:45.000Z,78.79
2019-03-10T06:40:13.334Z,79.05
2019-03-10T06:42:40.883Z,79.45
2019-03-10T06:45:09.040Z,79.72
2019-03-10T06:47:36.796Z,79.64
2019-03-10T06:50:05.480Z,81.97
2019-03-10T06:52:32.891Z,81.50
2019-03-10T06:55:00.794Z,80.97
2019-03-10T06:57:29.104Z,81.53
2019-03-10T06:59:57.079Z,82.86
2019-03-10T07:02:28.111Z,83.06
2019-03-10T07:04:56.152Z,83.13
2019-03-10T07:07:23.572Z,81.92
2019-03-10T07:09:51.267Z,82.77
2019-03-10T07:12:18.946Z,81.52
2019-03-10T07:14:47.489Z,80.94
2019-03-10T07:17:14.791Z,83.00
2019-03-10T07:19:42.078Z,82.24
2019-03-10T07:22:09.499Z,83.25
2019-03-10T07:24:37.159Z,83.34
2019-03-10T07:27:04.640Z,82.49
2019-03-10T07:29:54.985Z,83.69
2019-03-10T07:32:33.953Z,83.76
2019-03-10T07:35:15.025Z,82.98
2019-03-10T07:37:54.824Z,84.87
2019-03-10T07:40:54.039Z,83.39
2019-03-10T07:43:38.804Z,83.87
2019-03-10T07:46:32.033Z,84.34
2019-03-10T07:49:21.572Z,84.14
2019-03-10T07:51:57.980Z,82.11
2019-03-10T07:54:53.995Z,82.61
2019-03-10T07:57:39.811Z,84.01
2019-03-10T08:00:26.861Z,84.40
2019-03-10T08:03:01.006Z,85.17
2019-03-10T08:05:57.587Z,85.04
2019-03-10T08:08:41.442Z,84.87
2019-03-10T08:11:14.542Z,82.96
2019-03-10T08:14:10.268Z,83.06
2019-03-10T08:16:56.197Z,83.21
2019-03-10T08:19:40.446Z,84.29
2019-03-10T08:22:30.016Z,84.10
2019-03-10T08:25:16.230Z,85.40
2019-03-10T08:28:03.252Z,85.59
2019-03-10T08:30:50.757Z,84.67
2019-03-10T08:33:40.798Z,84.72
2019-03-10T08:36:16.413Z,84.93
2019-03-10T08:39:09.257Z,86.13
2019-03-10T08:42:02.681Z,85.78
2019-03-10T08:44:52.727Z,85.64
2019-03-10T08:47:35.791Z,86.11
2019-03-10T08:50:25.872Z,86.42
2019-03-10T08:53:07.974Z,85.74
2019-03-10T08:55:53.042Z,86.36
2019-03-10T08:58:41.176Z,85.77
2019-03-10T09:01:27.506Z,86.29
2019-03-10T09:04:13.756Z,84.57
2019-03-10T09:07:01.465Z,84.85
2019-03-10T09:09:51.589Z,84.97
2019-03-10T09:12:25.623Z,84.96
2019-03-10T09:15:12.977Z,83.59
2019-03-10T09:18:00.266Z,84.87
2019-03-10T09:20:53.271Z,85.03
2019-03-10T09:23:31.439Z,83.98
2019-03-10T09:26:26.146Z,84.58
2019-03-10T09:29:08.992Z,84.06
2019-03-10T09:31:43.691Z,82.76
2019-03-10T09:34:20.453Z,82.32
2019-03-10T09:37:13.655Z,83.03
2019-03-10T09:40:00.878Z,82.42
2019-03-10T09:43:00.227Z,82.63
2019-03-10T09:45:50.003Z,82.65
2019-03-10T09:48:34.849Z,83.35
2019-03-10T09:51:30.935Z,84.19
2019-03-10T09:54:14.779Z,82.92
2019-03-10T09:57:09.590Z,81.47
2019-03-10T09:59:43.504Z,82.60
2019-03-10T10:02:18.730Z,83.39
2019-03-10T10:05:02.586Z,83.11
2019-03-10T10:08:01.677Z,84.46
2019-03-10T10:10:35.979Z,85.00
2019-03-10T10:13:28.421Z,83.99
2019-03-10T10:16:23.988Z,84.93
2019-03-10T10:19:11.517Z,83.09
2019-03-10T10:22:04.587Z,83.91
2019-03-10T10:24:51.530Z,80.53
2019-03-10T10:27:28.379Z,79.63
2019-03-10T10:30:01.362Z,80.16
2019-03-10T10:32:57.865Z,80.29
2019-03-10T10:35:57.661Z,80.30
2019-03-10T10:38:47.743Z,76.90
2019-03-10T10:41:47.037Z,76.19
2019-03-10T10:44:20.859Z,77.76
2019-03-10T10:46:55.794Z,77.69
2019-03-10T10:49:35.538Z,77.83
2019-03-10T10:52:14.309Z,77.05
2019-03-10T10:55:06.587Z,76.58
2019-03-10T10:58:08.899Z,75.77
2019-03-10T11:00:51.069Z,77.49
2019-03-10T11:03:50.955Z,76.31
2019-03-10T11:06:34.073Z,76.04
2019-03-10T11:09:24.320Z,76.51
2019-03-10T11:12:03.680Z,77.26
2019-03-10T11:14:50.799Z,76.06
2019-03-10T11:17:29.621Z,75.30
2019-03-10T11:20:03.894Z,77.10
2019-03-10T11:22:51.457Z,75.43
2019-03-10T11:25:40.267Z,76.82
2019-03-10T11:28:28.676Z,77.39
2019-03-10T11:31:07.585Z,74.85
2019-03-10T11:33:51.282Z,75.82
2019-03-10T11:36:29.593Z,74.49
2019-03-10T11:39:15.273Z,75.27
2019-03-10T11:42:02.368Z,73.94
2019-03-10T11:44:50.251Z,73.54
2019-03-10T11:47:37.449Z,74.31
2019-03-10T11:50:24.745Z,73.42
2019-03-10T11:53:19.207Z,73.12
2019-03-10T11:55:50.533Z,72.33
2019-03-10T11:58:26.950Z,73.10
2019-03-10T12:01:03.303Z,73.85
2019-03-10T12:03:45.945Z,69.72
2019-03-10T12:06:22.331Z,72.85
2019-03-10T12:09:08.599Z,71.09
2019-03-10T12:11:36.401Z,69.38
2019-03-10T12:14:04.129Z,70.21
2019-03-10T12:16:31.782Z,70.86
2019-03-10T12:18:59.209Z,72.13
2019-03-10T12:21:26.669Z,71.12
2019-03-10T12:23:54.377Z,72.05
2019-03-10T12:26:21.991Z,71.03
2019-03-10T12:28:49.562Z,70.61
2019-03-10T12:31:17.002Z,71.37
2019-03-10T12:33:45.554Z,67.74
2019-03-10T12:36:13.306Z,67.42
2019-03-10T12:38:41.113Z,66.63
2019-03-10T12:41:08.721Z,71.09
2019-03-10T12:43:36.373Z,71.35
2019-03-10T12:46:04.399Z,66.88
2019-03-10T12:48:32.123Z,65.56
2019-03-10T12:50:59.774Z,66.35
2019-03-10T12:53:27.101Z,65.26
2019-03-10T12:55:54.521Z,70.49
2019-03-10T12:58:21.850Z,67.27
2019-03-10T13:00:49.616Z,67.53
2019-03-10T13:03:17.451Z,66.14
2019-03-10T13:05:45.671Z,67.64
2019-03-10T13:08:13.375Z,66.70
2019-03-10T13:10:41.083Z,65.76
2019-03-10T13:13:08.973Z,67.32
2019-03-10T13:15:36.319Z,67.13
2019-03-10T13:18:04.021Z,68.40
2019-03-10T13:20:33.983Z,67.12
2019-03-10T13:23:01.255Z,67.48
2019-03-10T13:25:29.503Z,63.23
2019-03-10T13:27:57.140Z,65.48
2019-03-10T13:30:25.182Z,62.58
2019-03-10T13:32:53.135Z,65.47
2019-03-10T13:35:20.779Z,64.39
2019-03-10T13:37:48.069Z,62.20
2019-03-10T13:40:15.857Z,62.64
2019-03-10T13:42:43.748Z,60.95
2019-03-10T13:45:11.636Z,59.79
2019-03-10T13:47:39.757Z,58.95
2019-03-10T13:50:09.776Z,58.56
2019-03-10T13:52:37.613Z,57.31
2019-03-10T13:55:05.582Z,53.55
2019-03-10T13:57:32.939Z,53.34
2019-03-10T14:00:01.065Z,52.72
2019-03-10T14:02:28.593Z,48.46
2019-03-10T14:04:56.629Z,45.47
2019-03-10T14:07:24.905Z,49.23
2019-03-10T14:09:53.052Z,49.11
2019-03-10T14:12:22.580Z,46.99
2019-03-10T14:14:50.740Z,51.92
2019-03-10T14:17:18.020Z,49.17
2019-03-10T14:19:45.959Z,46.86
2019-03-10T14:22:13.591Z,49.37
2019-03-10T14:24:41.454Z,47.05
2019-03-10T14:27:09.269Z,47.81
2019-03-10T14:29:37.615Z,45.60
2019-03-10T14:32:05.741Z,49.42
2019-03-10T14:34:33.281Z,49.64
2019-03-10T14:37:01.120Z,47.07
2019-03-10T14:39:29.200Z,42.49
2019-03-10T14:41:57.458Z,46.58
2019-03-10T14:44:25.343Z,42.46
2019-03-10T14:46:53.020Z,46.30
2019-03-10T14:49:23.401Z,44.54
2019-03-10T14:51:50.420Z,43.66
2019-03-10T14:54:18.203Z,45.50
2019-03-10T14:56:46.210Z,44.68
2019-03-10T14:59:13.478Z,42.99
2019-03-10T15:01:41.511Z,41.70
2019-03-10T15:04:08.799Z,42.61
2019-03-10T15:06:38.432Z,43.42
2019-03-10T15:09:07.400Z,44.24
2019-03-10T15:11:34.842Z,44.37
2019-03-10T15:14:02.643Z,43.51
2019-03-10T15:16:30.357Z,46.53
2019-03-10T15:18:57.903Z,45.44
2019-03-10T15:21:25.896Z,46.93
2019-03-10T15:23:53.677Z,44.42
2019-03-10T15:26:21.103Z,45.23
2019-03-10T15:28:50.394Z,44.07
2019-03-10T15:31:18.570Z,41.97
2019-03-10T15:33:46.098Z,42.74
2019-03-10T15:36:20.470Z,44.18
2019-03-10T15:38:42.982Z,45.52
2019-03-10T15:41:10.628Z,44.85
2019-03-10T15:43:38.385Z,40.28
2019-03-10T15:46:06.851Z,45.81
2019-03-10T15:48:34.369Z,38.91
2019-03-10T15:51:01.805Z,41.69
2019-03-10T15:53:29.324Z,41.10
2019-03-10T15:55:57.029Z,41.85
2019-03-10T15:58:25.073Z,39.52
2019-03-10T16:00:53.167Z,40.86
2019-03-10T16:03:20.802Z,43.33
2019-03-10T16:05:48.558Z,42.50
2019-03-10T16:08:16.265Z,39.20
2019-03-10T16:10:45.185Z,43.70
2019-03-10T16:13:13.321Z,40.10
2019-03-10T16:15:41.186Z,40.92
2019-03-10T16:18:08.600Z,40.18
2019-03-10T16:20:36.220Z,40.67
2019-03-10T16:23:04.068Z,38.46
2019-03-10T16:25:31.615Z,40.00
2019-03-10T16:27:59.169Z,41.90
2019-03-10T16:30:26.672Z,40.06
2019-03-10T16:32:54.130Z,40.81
2019-03-10T16:35:22.771Z,42.47
2019-03-10T16:37:50.611Z,42.06
2019-03-10T16:40:18.554Z,39.95
2019-03-10T16:42:46.168Z,39.71
2019-03-10T16:45:16.404Z,39.82
2019-03-10T16:47:43.945Z,41.28
2019-03-10T16:50:13.520Z,40.44
2019-03-10T16:52:41.019Z,40.23
2019-03-10T16:55:09.375Z,40.28
2019-03-10T16:57:37.165Z,39.04
2019-03-10T17:00:06.154Z,39.71
2019-03-10T17:02:33.816Z,39.95
2019-03-10T17:05:01.584Z,39.02
2019-03-10T17:07:29.027Z,39.35
2019-03-10T17:09:56.890Z,42.54
2019-03-10T17:12:24.123Z,38.90
2019-03-10T17:14:52.090Z,39.24
2019-03-10T17:17:19.729Z,42.77
2019-03-10T17:19:47.761Z,40.90
2019-03-10T17:22:15.736Z,42.79
2019-03-10T17:24:43.526Z,42.79
2019-03-10T17:27:11.481Z,42.73
2019-03-10T17:29:38.987Z,42.58
2019-03-10T17:32:06.819Z,43.21
2019-03-10T17:34:34.189Z,37.96
2019-03-10T17:37:02.006Z,40.62
2019-03-10T17:39:29.294Z,39.75
2019-03-10T17:41:57.240Z,39.93
2019-03-10T17:44:25.218Z,39.52
2019-03-10T17:46:52.497Z,39.16
2019-03-10T17:49:20.053Z,40.20
2019-03-10T17:51:47.347Z,39.95
2019-03-10T17:54:15.481Z,44.66
2019-03-10T17:56:43.198Z,47.16
2019-03-10T17:59:10.688Z,48.99
2019-03-10T18:01:38.321Z,50.71
2019-03-10T18:04:06.297Z,52.47
2019-03-10T18:06:34.165Z,51.97
2019-03-10T18:09:02.284Z,54.56
2019-03-10T18:11:30.219Z,56.42
2019-03-10T18:13:57.794Z,56.80
2019-03-10T18:16:25.947Z,57.92
2019-03-10T18:18:54.002Z,59.08
2019-03-10T18:21:23.189Z,59.44
2019-03-10T18:23:51.119Z,61.16
2019-03-10T18:26:18.783Z,60.69
2019-03-10T18:28:46.247Z,60.53
2019-03-10T18:31:14.020Z,62.85
2019-03-10T18:33:41.436Z,63.64
2019-03-10T18:36:09.100Z,63.43
2019-03-10T18:38:36.864Z,62.31
2019-03-10T18:41:04.270Z,61.00
2019-03-10T18:43:32.153Z,63.76
2019-03-10T18:45:59.588Z,62.81
2019-03-10T18:48:27.272Z,62.58
2019-03-10T18:50:55.265Z,63.43
2019-03-10T18:53:23.129Z,61.92
2019-03-10T18:55:50.870Z,63.77
2019-03-10T18:58:18.730Z,65.31
2019-03-10T19:00:46.541Z,64.76
2019-03-10T19:04:06.464Z,63.71
2019-03-10T19:06:34.127Z,65.41
2019-03-10T19:09:01.567Z,65.88
2019-03-10T19:11:29.266Z,64.80
2019-03-10T19:13:56.993Z,66.16
2019-03-10T19:16:24.787Z,66.74
2019-03-10T19:18:52.729Z,66.74
2019-03-10T19:21:20.835Z,66.10
2019-03-10T19:23:48.666Z,64.53
2019-03-10T19:26:16.102Z,66.29
2019-03-10T19:28:44.148Z,65.20
2019-03-10T19:31:12.282Z,64.65
2019-03-10T19:33:39.899Z,65.77
2019-03-10T19:36:07.513Z,64.68
2019-03-10T19:38:35.060Z,65.51
2019-03-10T19:41:03.256Z,63.88
2019-03-10T19:43:31.187Z,65.16
2019-03-10T19:45:59.311Z,64.50
2019-03-10T19:48:27.300Z,65.12
2019-03-10T19:50:55.362Z,64.29
2019-03-10T19:53:22.936Z,64.18
2019-03-10T19:55:51.181Z,64.28
2019-03-10T19:58:19.108Z,65.31
2019-03-10T20:00:47.141Z,63.78
2019-03-10T20:03:14.725Z,63.84
2019-03-10T20:05:43.165Z,63.77
2019-03-10T20:08:11.189Z,64.26
2019-03-10T20:10:39.024Z,64.35
2019-03-10T20:13:06.622Z,63.61
2019-03-10T20:15:34.170Z,63.68
2019-03-10T20:18:01.415Z,64.64
2019-03-10T20:20:28.952Z,63.22
2019-03-10T20:22:56.382Z,62.59
2019-03-10T20:25:23.950Z,59.52
2019-03-10T20:27:51.627Z,62.55
2019-03-10T20:30:20.841Z,59.38
2019-03-10T20:32:48.381Z,62.30
2019-03-10T20:35:17.088Z,63.57
2019-03-10T20:37:45.400Z,60.83
2019-03-10T20:40:14.447Z,58.14
2019-03-10T20:42:42.114Z,61.91
2019-03-10T20:45:10.235Z,61.08
2019-03-10T20:47:37.734Z,61.13
2019-03-10T20:50:06.732Z,60.41
2019-03-10T20:52:34.159Z,62.27
2019-03-10T20:55:01.670Z,63.61
2019-03-10T20:57:29.352Z,62.89
2019-03-10T21:00:00.509Z,62.30
2019-03-10T21:02:26.423Z,61.21
2019-03-10T21:04:54.100Z,61.87
2019-03-10T21:07:22.230Z,62.58
2019-03-10T21:13:38.489Z,62.71
2019-03-10T21:16:05.625Z,62.21
2019-03-10T21:18:36.330Z,63.34
2019-03-10T21:21:03.602Z,62.64
2019-03-10T21:23:31.673Z,63.32
2019-03-10T21:25:59.553Z,62.07
2019-03-10T21:28:27.507Z,64.24
2019-03-10T21:30:54.659Z,64.38
2019-03-10T21:33:22.360Z,63.66
2019-03-10T21:35:49.809Z,62.88
2019-03-10T21:38:17.455Z,63.69
2019-03-10T21:40:45.211Z,65.28
2019-03-10T21:43:13.532Z,62.83
2019-03-10T21:45:41.712Z,64.73
2019-03-10T21:48:09.540Z,64.50
2019-03-10T21:50:37.715Z,63.06
2019-03-10T21:53:05.596Z,63.44
2019-03-10T21:55:33.017Z,64.11
2019-03-10T21:58:00.867Z,63.78
2019-03-10T22:00:28.750Z,66.02
2019-03-10T22:02:56.142Z,64.82
2019-03-10T22:05:24.261Z,66.11
2019-03-10T22:07:52.233Z,65.96
2019-03-10T22:10:26.814Z,65.10
2019-03-10T22:12:50.137Z,65.86
2019-03-10T22:15:17.981Z,65.77
2019-03-10T22:17:45.462Z,67.25
2019-03-10T22:20:13.715Z,68.83
2019-03-10T22:22:48.489Z,69.12
2019-03-10T22:25:13.270Z,70.08
2019-03-10T22:27:41.510Z,68.75
2019-03-10T22:30:12.064Z,70.25
2019-03-10T22:32:40.399Z,70.11
2019-03-10T22:35:08.117Z,70.71
2019-03-10T22:37:35.837Z,70.05
2019-03-10T22:40:04.628Z,70.90
2019-03-10T22:42:32.501Z,71.40
2019-03-10T22:45:00.494Z,72.07
2019-03-10T22:47:27.777Z,70.55
2019-03-10T22:49:55.080Z,71.99
2019-03-10T22:52:23.785Z,72.09
2019-03-10T22:54:51.452Z,71.74
2019-03-10T22:57:19.100Z,71.25
2019-03-10T22:59:47.064Z,70.33
2019-03-10T23:02:14.487Z,69.72
2019-03-10T23:04:42.428Z,70.32
2019-03-10T23:07:09.859Z,69.95
2019-03-10T23:09:37.461Z,71.10
2019-03-10T23:12:05.092Z,70.13
2019-03-10T23:14:33.069Z,70.83
2019-03-10T23:17:00.882Z,73.46
2019-03-10T23:19:28.358Z,72.50
2019-03-10T23:21:56.628Z,71.10
2019-03-10T23:24:24.215Z,71.90
2019-03-10T23:26:52.365Z,73.19
2019-03-10T23:29:19.644Z,73.77
2019-03-10T23:31:47.247Z,74.05
2019-03-10T23:34:14.406Z,74.37
2019-03-10T23:36:42.195Z,76.35
2019-03-10T23:39:09.700Z,75.87
2019-03-10T23:41:37.344Z,76.55
2019-03-10T23:44:05.261Z,77.83
2019-03-10T23:46:32.473Z,76.28
2019-03-10T23:49:00.347Z,75.40
2019-03-10T23:51:28.045Z,74.97
2019-03-10T23:53:55.972Z,73.10
2019-03-10T23:56:23.865Z,73.40
2019-03-10T23:58:51.464Z,72.55
